Guanacache, Argentina
Current Conditions -  °F | °C
As of 10:00 PM on Tuesday 27 Jan 2015 (Local Time) from SAME Reporting Station
Few Clouds Few Clouds  
Wind Chill: 31°   Ceiling: Unl
Heat Index: 31°   Visibility: 6mi
Dew Point: 16°   Wind: 7mph
Humidity: 40%   Direction: 50°NE
Pressure: 29.71"   Gusts: NA
Location:  32°S, 68.61°W
Report Text: SAME 280100Z 05006KT 9999 FEW040 FEW050CB 31/16 Q1006
Loading
Personal Weather Stations






























Interactive Weather Map New forecast layout! Learn more

10-Day Weather Forecast

Advertisements
Track Severe Weather on mobile